createdAt,value
2023-04-05T00:01:37.318Z,18.17
2023-04-05T00:04:08.079Z,18.18
2023-04-05T00:06:40.039Z,18.20
2023-04-05T00:09:11.956Z,18.22
2023-04-05T00:14:28.145Z,18.26
2023-04-05T00:16:57.896Z,18.26
2023-04-05T00:19:30.080Z,18.29
2023-04-05T00:22:00.320Z,18.28
2023-04-05T00:24:29.663Z,18.31
2023-04-05T00:27:00.554Z,18.32
2023-04-05T00:29:39.216Z,18.33
2023-04-05T00:32:06.151Z,18.34
2023-04-05T00:34:38.433Z,18.35
2023-04-05T00:37:07.927Z,18.35
2023-04-05T00:39:34.557Z,18.37
2023-04-05T00:42:09.550Z,18.38
2023-04-05T00:44:41.659Z,18.39
2023-04-05T00:47:08.379Z,18.39
2023-04-05T00:49:38.949Z,18.40
2023-04-05T00:52:05.679Z,18.40
2023-04-05T00:54:38.062Z,18.40
2023-04-05T00:57:07.058Z,18.40
2023-04-05T00:59:40.072Z,18.43
2023-04-05T01:02:17.997Z,18.41
2023-04-05T01:04:50.461Z,18.42
2023-04-05T01:07:24.101Z,18.42
2023-04-05T01:09:54.458Z,18.44
2023-04-05T01:12:39.420Z,18.43
2023-04-05T01:15:12.863Z,18.44
2023-04-05T01:17:42.387Z,18.45
2023-04-05T01:20:14.366Z,18.46
2023-04-05T01:26:01.012Z,18.48
2023-04-05T01:28:58.854Z,18.47
2023-04-05T01:31:47.861Z,18.48
2023-04-05T01:34:35.087Z,18.49
2023-04-05T01:37:07.100Z,18.48
2023-04-05T01:39:34.162Z,18.49
2023-04-05T01:42:05.425Z,18.49
2023-04-05T01:44:37.408Z,18.50
2023-04-05T01:47:07.652Z,18.51
2023-04-05T01:49:39.639Z,18.49
2023-04-05T01:52:25.258Z,18.52
2023-04-05T01:54:53.655Z,18.51
2023-04-05T01:57:20.537Z,18.52
2023-04-05T01:59:47.805Z,18.51
2023-04-05T02:02:25.835Z,18.50
2023-04-05T02:04:55.398Z,18.51
2023-04-05T02:07:27.339Z,18.51
2023-04-05T02:09:56.412Z,18.51
2023-04-05T02:15:12.787Z,18.50
2023-04-05T02:18:03.888Z,18.52
2023-04-05T02:20:33.962Z,18.51
2023-04-05T02:23:03.527Z,18.51
2023-04-05T02:25:32.043Z,18.51
2023-04-05T02:27:58.680Z,18.51
2023-04-05T02:30:27.568Z,18.53
2023-04-05T02:32:56.462Z,18.52
2023-04-05T02:35:25.371Z,18.51
2023-04-05T02:38:01.546Z,18.54
2023-04-05T02:40:33.559Z,18.53
2023-04-05T02:43:02.581Z,18.54
2023-04-05T02:45:31.911Z,18.54
2023-04-05T02:48:03.561Z,18.55
2023-04-05T02:53:39.739Z,18.55
2023-04-05T02:56:09.389Z,18.54
2023-04-05T02:58:39.229Z,18.58
2023-04-05T03:01:08.680Z,18.56
2023-04-05T03:03:40.329Z,18.57
2023-04-05T03:06:13.512Z,18.54
2023-04-05T03:08:48.718Z,18.55
2023-04-05T03:11:17.770Z,18.55
2023-04-05T03:13:49.482Z,18.54
2023-04-05T03:16:20.429Z,18.55
2023-04-05T03:18:53.560Z,18.53
2023-04-05T03:21:24.936Z,18.55
2023-04-05T03:23:51.578Z,18.56
2023-04-05T03:26:19.096Z,18.56
2023-04-05T03:28:45.791Z,18.55
2023-04-05T03:31:18.354Z,18.55
2023-04-05T03:33:47.330Z,18.55
2023-04-05T03:36:16.778Z,18.55
2023-04-05T03:38:45.854Z,18.55
2023-04-05T03:41:17.246Z,18.56
2023-04-05T03:43:48.880Z,18.52
2023-04-05T03:46:17.945Z,18.56
2023-04-05T03:48:47.734Z,18.54
2023-04-05T03:51:16.744Z,18.55
2023-04-05T03:53:47.169Z,18.54
2023-04-05T03:56:21.909Z,18.53
2023-04-05T03:58:48.647Z,18.54
2023-04-05T04:01:18.416Z,18.53
2023-04-05T04:03:47.709Z,18.54
2023-04-05T04:06:19.207Z,18.54
2023-04-05T04:08:46.402Z,18.54
2023-04-05T04:11:15.906Z,18.54
2023-04-05T04:13:45.228Z,18.52
2023-04-05T04:16:11.864Z,18.55
2023-04-05T04:18:40.729Z,18.55
2023-04-05T04:21:07.492Z,18.53
2023-04-05T04:23:39.283Z,18.55
2023-04-05T04:26:10.501Z,18.54
2023-04-05T04:28:40.497Z,18.53
2023-04-05T04:31:16.949Z,18.51
2023-04-05T04:36:38.099Z,18.52
2023-04-05T04:39:07.255Z,18.53
2023-04-05T04:41:36.056Z,18.51
2023-04-05T04:44:06.135Z,18.51
2023-04-05T04:46:36.556Z,18.49
2023-04-05T04:49:06.005Z,18.50
2023-04-05T04:51:35.528Z,18.51
2023-04-05T04:54:04.761Z,18.51
2023-04-05T04:56:36.746Z,18.52
2023-04-05T04:59:08.151Z,18.50
2023-04-05T05:01:38.111Z,18.51
2023-04-05T05:04:07.160Z,18.49
2023-04-05T05:06:38.785Z,18.51
2023-04-05T05:09:07.726Z,18.51
2023-04-05T05:11:40.578Z,18.52
2023-04-05T05:14:11.982Z,18.52
2023-04-05T05:16:38.740Z,18.52
2023-04-05T05:19:07.719Z,18.52
2023-04-05T05:21:36.492Z,18.52
2023-04-05T05:24:16.580Z,18.52
2023-04-05T05:26:47.904Z,18.53
2023-04-05T05:29:20.438Z,18.54
2023-04-05T05:31:47.196Z,18.54
2023-04-05T05:34:19.449Z,18.55
2023-04-05T05:36:52.514Z,17.01
2023-04-05T05:39:20.616Z,15.43
2023-04-05T05:41:51.164Z,16.72
2023-04-05T05:44:17.952Z,17.26
2023-04-05T05:46:46.966Z,17.49
2023-04-05T05:49:13.870Z,17.63
2023-04-05T05:51:40.813Z,17.67
2023-04-05T05:54:09.591Z,17.74
2023-04-05T05:56:38.564Z,17.78
2023-04-05T05:59:09.905Z,17.81
2023-04-05T06:01:42.823Z,17.83
2023-04-05T06:04:09.961Z,17.87
2023-04-05T06:06:39.084Z,17.88
2023-04-05T06:09:08.014Z,17.91
2023-04-05T06:11:53.217Z,17.94
2023-04-05T06:14:25.718Z,17.96
2023-04-05T06:16:53.632Z,17.98
2023-04-05T06:19:22.621Z,18.00
2023-04-05T06:21:57.517Z,18.02
2023-04-05T06:24:26.478Z,18.03
2023-04-05T06:26:57.246Z,18.08
2023-04-05T06:29:24.078Z,18.07
2023-04-05T06:31:51.162Z,18.09
2023-04-05T06:34:25.382Z,18.10
2023-04-05T06:36:58.750Z,18.13
2023-04-05T06:39:27.744Z,18.15
2023-04-05T06:41:56.612Z,18.17
2023-04-05T06:44:26.280Z,18.19
2023-04-05T06:46:57.751Z,18.19
2023-04-05T06:49:27.219Z,18.23
2023-04-05T06:51:56.544Z,18.23
2023-04-05T06:54:25.865Z,18.26
2023-04-05T06:56:52.598Z,18.27
2023-04-05T06:59:19.838Z,18.31
2023-04-05T07:01:51.203Z,18.30
2023-04-05T07:04:23.415Z,18.32
2023-04-05T07:06:54.341Z,18.31
2023-04-05T07:09:24.702Z,18.57
2023-04-05T07:11:51.537Z,18.50
2023-04-05T07:14:21.076Z,18.52
2023-04-05T07:16:48.661Z,18.51
2023-04-05T07:19:19.161Z,18.49
2023-04-05T07:21:51.042Z,18.51
2023-04-05T07:24:17.738Z,18.51
2023-04-05T07:26:48.161Z,18.56
2023-04-05T07:29:16.961Z,18.57
2023-04-05T07:31:43.863Z,18.53
2023-04-05T07:34:10.477Z,18.53
2023-04-05T07:36:41.995Z,18.13
2023-04-05T07:39:08.667Z,17.61
2023-04-05T07:41:39.541Z,18.05
2023-04-05T07:44:09.327Z,18.25
2023-04-05T07:46:36.200Z,18.35
2023-04-05T07:49:05.129Z,18.44
2023-04-05T07:51:37.489Z,18.56
2023-04-05T07:54:05.725Z,18.70
2023-04-05T07:56:34.831Z,18.81
2023-04-05T07:59:04.500Z,18.90
2023-04-05T08:01:33.494Z,18.97
2023-04-05T08:04:03.468Z,19.12
2023-04-05T08:06:39.814Z,19.15
2023-04-05T08:09:11.922Z,19.26
2023-04-05T08:11:40.046Z,19.32
2023-04-05T08:14:09.898Z,19.36
2023-04-05T08:16:39.302Z,19.43
2023-04-05T08:19:06.283Z,19.50
2023-04-05T08:21:35.285Z,19.54
2023-04-05T08:24:02.356Z,19.59
2023-04-05T08:26:30.996Z,19.63
2023-04-05T08:29:01.025Z,19.67
2023-04-05T08:31:27.744Z,19.78
2023-04-05T08:33:56.616Z,19.79
2023-04-05T08:36:23.288Z,19.83
2023-04-05T08:38:54.650Z,19.88
2023-04-05T08:41:27.277Z,19.89
2023-04-05T08:44:00.342Z,19.90
2023-04-05T08:46:27.270Z,19.90
2023-04-05T08:48:59.019Z,19.90
2023-04-05T08:51:29.650Z,19.93
2023-04-05T08:53:59.000Z,19.98
2023-04-05T08:56:29.815Z,19.40
2023-04-05T08:59:05.014Z,17.95
2023-04-05T09:01:38.275Z,17.38
2023-04-05T09:04:16.861Z,18.20
2023-04-05T09:06:48.293Z,18.57
2023-04-05T09:09:17.771Z,18.72
2023-04-05T09:11:47.535Z,18.81
2023-04-05T09:14:23.487Z,18.89
2023-04-05T09:16:50.432Z,18.96
2023-04-05T09:19:20.561Z,19.01
2023-04-05T09:22:01.390Z,19.09
2023-04-05T09:24:41.534Z,19.15
2023-04-05T09:27:12.856Z,19.22
2023-04-05T09:29:45.020Z,19.26
2023-04-05T09:32:13.990Z,19.31
2023-04-05T09:34:44.195Z,19.36
2023-04-05T09:37:14.756Z,19.38
2023-04-05T09:39:41.644Z,19.45
2023-04-05T09:42:13.364Z,19.47
2023-04-05T09:44:53.437Z,19.62
2023-04-05T09:47:25.098Z,19.65
2023-04-05T09:49:56.341Z,19.68
2023-04-05T09:52:26.035Z,19.74
2023-04-05T09:54:56.584Z,19.74
2023-04-05T09:57:26.705Z,19.82
2023-04-05T09:59:54.443Z,19.91
2023-04-05T10:02:24.901Z,19.97
2023-04-05T10:05:04.479Z,19.92
2023-04-05T10:07:31.975Z,19.89
2023-04-05T10:10:05.644Z,19.90
2023-04-05T10:12:33.106Z,19.89
2023-04-05T10:15:09.727Z,19.91
2023-04-05T10:17:42.037Z,19.90
2023-04-05T10:20:10.766Z,19.92
2023-04-05T10:22:41.683Z,19.93
2023-04-05T10:25:21.843Z,19.93
2023-04-05T10:27:56.424Z,19.93
2023-04-05T10:30:24.645Z,19.94
2023-04-05T10:33:03.115Z,19.95
2023-04-05T10:35:50.897Z,19.98
2023-04-05T10:38:30.534Z,19.95
2023-04-05T10:41:15.300Z,19.97
2023-04-05T10:43:45.929Z,20.08
2023-04-05T10:46:15.404Z,20.12
2023-04-05T10:48:57.383Z,20.14
2023-04-05T10:51:32.375Z,20.14
2023-04-05T10:53:59.239Z,20.13
2023-04-05T10:56:31.433Z,20.15
2023-04-05T10:59:01.633Z,20.13
2023-04-05T11:01:28.624Z,20.10
2023-04-05T11:03:57.481Z,20.09
2023-04-05T11:06:30.664Z,20.10
2023-04-05T11:09:12.585Z,20.10
2023-04-05T11:11:40.531Z,20.08
2023-04-05T11:14:22.799Z,20.07
2023-04-05T11:16:57.795Z,20.05
2023-04-05T11:20:06.076Z,20.02
2023-04-05T11:22:38.293Z,20.00
2023-04-05T11:25:06.084Z,19.97
2023-04-05T11:27:41.230Z,19.94
2023-04-05T11:30:10.661Z,19.92
2023-04-05T11:32:45.901Z,19.74
2023-04-05T11:35:18.220Z,19.56
2023-04-05T11:37:57.864Z,19.62
2023-04-05T11:40:31.653Z,19.71
2023-04-05T11:43:04.862Z,19.68
2023-04-05T11:45:32.614Z,19.67
2023-04-05T11:48:15.436Z,19.68
2023-04-05T11:50:45.580Z,19.70
2023-04-05T11:53:15.701Z,19.72
2023-04-05T11:55:44.162Z,19.79
2023-04-05T11:58:17.400Z,19.83
2023-04-05T12:00:50.133Z,19.88
2023-04-05T12:03:17.340Z,20.12
2023-04-05T12:05:52.701Z,20.06
2023-04-05T12:08:22.238Z,20.04
2023-04-05T12:11:01.349Z,20.07
2023-04-05T12:13:29.553Z,20.11
2023-04-05T12:16:06.317Z,20.10
2023-04-05T12:18:38.939Z,20.13
2023-04-05T12:21:11.353Z,20.18
2023-04-05T12:23:38.486Z,20.19
2023-04-05T12:26:09.462Z,20.20
2023-04-05T12:28:57.279Z,20.25
2023-04-05T12:31:46.769Z,20.27
2023-04-05T12:34:25.733Z,20.28
2023-04-05T12:36:58.730Z,20.27
2023-04-05T12:39:27.993Z,20.27
2023-04-05T12:42:07.708Z,20.25
2023-04-05T12:44:38.204Z,20.23
2023-04-05T12:47:09.318Z,20.22
2023-04-05T12:49:41.818Z,20.32
2023-04-05T12:52:14.473Z,18.32
2023-04-05T12:54:49.722Z,17.68
2023-04-05T12:57:17.067Z,17.16
2023-04-05T12:59:43.732Z,18.18
2023-04-05T13:02:12.626Z,18.71
2023-04-05T13:04:41.586Z,18.90
2023-04-05T13:07:11.380Z,19.02
2023-04-05T13:09:41.745Z,19.14
2023-04-05T13:12:09.310Z,19.23
2023-04-05T13:14:38.428Z,19.32
2023-04-05T13:17:07.410Z,19.39
2023-04-05T13:19:37.368Z,19.40
2023-04-05T13:22:06.560Z,19.41
2023-04-05T13:24:36.228Z,19.46
2023-04-05T13:27:07.873Z,19.52
2023-04-05T13:29:34.582Z,19.52
2023-04-05T13:32:03.715Z,19.56
2023-04-05T13:34:31.603Z,19.58
2023-04-05T13:36:58.363Z,19.63
2023-04-05T13:39:29.643Z,19.63
2023-04-05T13:42:02.130Z,19.64
2023-04-05T13:44:28.728Z,19.68
2023-04-05T13:46:57.594Z,19.74
2023-04-05T13:49:29.052Z,19.76
2023-04-05T13:51:55.810Z,19.83
2023-04-05T13:54:25.644Z,19.83
2023-04-05T13:56:56.419Z,19.86
2023-04-05T13:59:28.342Z,19.87
2023-04-05T14:01:57.362Z,19.85
2023-04-05T14:04:24.324Z,19.89
2023-04-05T14:06:51.098Z,19.92
2023-04-05T14:09:17.745Z,19.99
2023-04-05T14:11:44.443Z,20.00
2023-04-05T14:14:13.093Z,20.00
2023-04-05T14:16:40.043Z,20.03
2023-04-05T14:19:06.675Z,20.08
2023-04-05T14:21:37.256Z,20.10
2023-04-05T14:24:04.095Z,20.10
2023-04-05T14:26:32.897Z,20.10
2023-04-05T14:29:01.790Z,20.07
2023-04-05T14:31:30.755Z,20.10
2023-04-05T14:33:59.737Z,20.08
2023-04-05T14:36:44.959Z,20.04
2023-04-05T14:39:12.220Z,20.03
2023-04-05T14:41:44.090Z,20.03
2023-04-05T14:44:13.950Z,20.06
2023-04-05T14:46:40.766Z,20.04
2023-04-05T14:49:09.727Z,20.02
2023-04-05T14:51:41.057Z,20.03
2023-04-05T14:54:07.831Z,20.01
2023-04-05T14:56:36.694Z,19.99
2023-04-05T14:59:04.263Z,19.97
2023-04-05T15:01:31.961Z,19.96
2023-04-05T15:04:00.954Z,19.95
2023-04-05T15:06:28.773Z,19.93
2023-04-05T15:09:00.521Z,19.90
2023-04-05T15:11:27.584Z,19.90
2023-04-05T15:13:56.584Z,19.89
2023-04-05T15:16:25.176Z,19.88
2023-04-05T15:18:52.232Z,19.86
2023-04-05T15:21:21.182Z,19.83
2023-04-05T15:23:50.829Z,19.84
2023-04-05T15:26:22.069Z,19.85
2023-04-05T15:28:51.483Z,19.82
2023-04-05T15:31:19.231Z,19.81
2023-04-05T15:33:46.274Z,19.77
2023-04-05T15:36:15.117Z,19.75
2023-04-05T15:38:42.175Z,19.72
2023-04-05T15:41:11.941Z,19.73
2023-04-05T15:43:43.616Z,19.70
2023-04-05T15:46:15.913Z,19.68
2023-04-05T15:48:45.420Z,19.70
2023-04-05T15:51:12.452Z,19.69
2023-04-05T15:53:43.819Z,19.69
2023-04-05T15:56:14.554Z,19.66
2023-04-05T15:58:42.212Z,19.66
2023-04-05T16:01:09.424Z,19.65
2023-04-05T16:03:36.821Z,19.63
2023-04-05T16:06:09.406Z,19.61
2023-04-05T16:08:37.002Z,19.61
2023-04-05T16:11:08.876Z,19.61
2023-04-05T16:13:36.063Z,19.59
2023-04-05T16:16:05.417Z,19.58
2023-04-05T16:18:32.221Z,19.55
2023-04-05T16:21:02.586Z,19.55
2023-04-05T16:23:29.570Z,19.52
2023-04-05T16:25:59.730Z,19.54
2023-04-05T16:28:27.609Z,19.58
2023-04-05T16:30:57.445Z,19.58
2023-04-05T16:33:26.287Z,19.55
2023-04-05T16:35:55.169Z,19.54
2023-04-05T16:38:27.327Z,19.54
2023-04-05T16:41:00.185Z,19.53
2023-04-05T16:43:27.225Z,19.52
2023-04-05T16:45:56.384Z,19.54
2023-04-05T16:48:26.946Z,19.54
2023-04-05T16:50:53.666Z,19.53
2023-04-05T16:53:24.817Z,19.52
2023-04-05T16:55:51.821Z,19.52
2023-04-05T16:58:21.265Z,19.51
2023-04-05T17:00:48.631Z,19.50
2023-04-05T17:03:16.560Z,19.49
2023-04-05T17:05:46.901Z,19.50
2023-04-05T17:08:21.075Z,19.48
2023-04-05T17:10:48.600Z,19.47
2023-04-05T17:13:17.852Z,19.48
2023-04-05T17:15:52.135Z,19.47
2023-04-05T17:18:22.140Z,19.46
2023-04-05T17:20:52.394Z,19.46
2023-04-05T17:23:20.787Z,19.46
2023-04-05T17:25:51.359Z,19.44
2023-04-05T17:28:18.322Z,19.43
2023-04-05T17:30:47.218Z,19.43
2023-04-05T17:33:19.784Z,19.42
2023-04-05T17:35:47.928Z,19.39
2023-04-05T17:38:15.485Z,19.40
2023-04-05T17:40:45.341Z,19.38
2023-04-05T17:43:16.556Z,19.37
2023-04-05T17:45:48.665Z,19.36
2023-04-05T17:48:19.293Z,19.37
2023-04-05T17:50:49.971Z,19.34
2023-04-05T17:53:22.785Z,19.34
2023-04-05T17:55:54.486Z,19.33
2023-04-05T17:58:23.086Z,19.33
2023-04-05T18:00:58.080Z,19.31
2023-04-05T18:03:25.281Z,19.31
2023-04-05T18:05:55.842Z,19.30
2023-04-05T18:08:26.451Z,19.30
2023-04-05T18:11:05.082Z,19.29
2023-04-05T18:13:34.556Z,19.28
2023-04-05T18:16:04.789Z,19.29
2023-04-05T18:18:35.296Z,19.27
2023-04-05T18:21:02.666Z,19.27
2023-04-05T18:23:30.052Z,19.26
2023-04-05T18:26:06.904Z,19.26
2023-04-05T18:28:35.793Z,19.25
2023-04-05T18:31:05.218Z,19.25
2023-04-05T18:33:34.378Z,19.24
2023-04-05T18:36:13.832Z,19.27
2023-04-05T18:38:41.269Z,19.24
2023-04-05T18:41:11.321Z,19.24
2023-04-05T18:43:42.663Z,19.25
2023-04-05T18:46:18.495Z,19.24
2023-04-05T18:48:50.209Z,19.24
2023-04-05T18:51:26.671Z,19.22
2023-04-05T18:54:00.626Z,19.23
2023-04-05T18:56:44.755Z,19.23
2023-04-05T18:59:19.207Z,19.21
2023-04-05T19:01:52.193Z,19.22
2023-04-05T19:04:22.280Z,19.20
2023-04-05T19:06:57.137Z,19.19
2023-04-05T19:09:34.306Z,19.18
2023-04-05T19:12:01.989Z,19.19
2023-04-05T19:14:30.692Z,19.18
2023-04-05T19:16:59.406Z,19.17
2023-04-05T19:19:28.853Z,19.17
2023-04-05T19:22:02.727Z,19.16
2023-04-05T19:24:33.782Z,19.16
2023-04-05T19:27:03.133Z,19.16
2023-04-05T19:29:33.047Z,19.14
2023-04-05T19:32:05.748Z,19.14
2023-04-05T19:34:34.722Z,19.13
2023-04-05T19:39:55.469Z,19.13
2023-04-05T19:42:24.939Z,19.13
2023-04-05T19:44:55.062Z,19.13
2023-04-05T19:47:31.333Z,19.12
2023-04-05T19:50:11.388Z,19.12
2023-04-05T19:52:57.066Z,19.12
2023-04-05T19:55:30.413Z,19.10
2023-04-05T19:58:00.653Z,19.12
2023-04-05T20:00:56.374Z,19.11
2023-04-05T20:03:31.916Z,19.12
2023-04-05T20:06:22.097Z,19.14
2023-04-05T20:08:53.788Z,19.05
2023-04-05T20:11:28.767Z,18.98
2023-04-05T20:14:04.528Z,19.02
2023-04-05T20:16:35.945Z,19.06
2023-04-05T20:19:13.486Z,19.07
2023-04-05T20:21:43.877Z,19.04
2023-04-05T20:24:17.455Z,17.63
2023-04-05T20:26:46.372Z,16.79
2023-04-05T20:29:17.290Z,16.21
2023-04-05T20:31:46.258Z,16.00
2023-04-05T20:34:16.451Z,16.64
2023-04-05T20:37:15.876Z,17.04
2023-04-05T20:39:45.394Z,17.20
2023-04-05T20:42:14.653Z,17.33
2023-04-05T20:44:41.467Z,17.39
2023-04-05T20:47:08.275Z,17.45
2023-04-05T20:49:37.534Z,17.54
2023-04-05T20:52:08.902Z,17.64
2023-04-05T20:54:43.074Z,17.77
2023-04-05T20:57:11.127Z,17.81
2023-04-05T20:59:42.106Z,17.87
2023-04-05T21:02:15.677Z,17.93
2023-04-05T21:04:49.820Z,18.00
2023-04-05T21:07:21.841Z,18.04
2023-04-05T21:09:48.662Z,18.10
2023-04-05T21:12:15.539Z,18.15
2023-04-05T21:14:50.139Z,18.19
2023-04-05T21:17:17.144Z,18.24
2023-04-05T21:19:53.353Z,18.28
2023-04-05T21:22:28.960Z,18.32
2023-04-05T21:24:59.070Z,18.38
2023-04-05T21:27:34.414Z,18.41
2023-04-05T21:30:05.219Z,18.43
2023-04-05T21:35:24.211Z,18.51
2023-04-05T21:38:04.232Z,18.55
2023-04-05T21:40:31.430Z,18.56
2023-04-05T21:43:04.637Z,18.58
2023-04-05T21:45:39.979Z,18.61
2023-04-05T21:48:11.529Z,18.63
2023-04-05T21:50:59.725Z,18.66
2023-04-05T21:53:32.784Z,18.68
2023-04-05T21:56:06.003Z,18.69
2023-04-05T21:58:42.115Z,18.71
2023-04-05T22:01:21.047Z,18.72
2023-04-05T22:03:56.592Z,18.73
2023-04-05T22:06:23.360Z,18.74
2023-04-05T22:09:01.026Z,18.77
2023-04-05T22:11:29.756Z,18.78
2023-04-05T22:14:02.367Z,18.80
2023-04-05T22:16:48.126Z,18.81
2023-04-05T22:19:15.666Z,18.83
2023-04-05T22:21:51.326Z,18.84
2023-04-05T22:24:18.224Z,18.84
2023-04-05T22:26:51.885Z,18.84
2023-04-05T22:29:24.473Z,18.85
2023-04-05T22:31:54.372Z,18.87
2023-04-05T22:34:24.367Z,18.87
2023-04-05T22:36:55.146Z,18.88
2023-04-05T22:39:25.614Z,18.88
2023-04-05T22:41:53.759Z,18.90
2023-04-05T22:44:25.690Z,18.90
2023-04-05T22:46:54.852Z,18.90
2023-04-05T22:49:27.008Z,18.90
2023-04-05T22:51:56.635Z,18.92
2023-04-05T22:54:24.074Z,18.92
2023-04-05T22:56:54.740Z,18.95
2023-04-05T22:59:24.956Z,18.96
2023-04-05T23:02:00.484Z,18.96
2023-04-05T23:04:31.251Z,18.97
2023-04-05T23:07:01.148Z,18.98
2023-04-05T23:09:35.097Z,18.98
2023-04-05T23:12:06.245Z,18.99
2023-04-05T23:14:32.768Z,19.00
2023-04-05T23:16:59.504Z,19.01
2023-04-05T23:19:29.062Z,19.01
2023-04-05T23:22:01.118Z,19.01
2023-04-05T23:24:30.159Z,19.02
2023-04-05T23:26:56.985Z,19.03
2023-04-05T23:29:26.508Z,19.03
2023-04-05T23:31:57.695Z,19.02
2023-04-05T23:34:29.744Z,19.02
2023-04-05T23:37:00.160Z,19.02
2023-04-05T23:39:36.321Z,19.01
2023-04-05T23:42:09.891Z,19.03
2023-04-05T23:44:37.462Z,19.02
2023-04-05T23:47:09.426Z,19.05
2023-04-05T23:49:38.345Z,19.04
2023-04-05T23:52:07.624Z,19.07
2023-04-05T23:54:37.312Z,19.06
2023-04-05T23:57:04.043Z,19.08
2023-04-05T23:59:35.699Z,19.08
